Time;durP1;ratioP1;P1;durP2;ratioP2;P2;SDS_P1;SDS_P2;PMS_P1;PMS_P2;Temp;Humidity;BMP_temperature;BMP_pressure;BME280_temperature;BME280_humidity;BME280_pressure;Samples;Min_cycle;Max_cycle;Signal;HPM_P1;HPM_P2
2022/12/15 00:40:25;;;;;;;;;;;-4.30;99.90;;;;;;5061721;28;20047;-76
2022/12/15 00:42:50;;;;;;;41.60;17.50;;;-4.30;99.90;;;;;;5042723;28;19905;-76
2022/12/15 00:45:16;;;;;;;42.55;17.90;;;-4.30;99.90;;;;;;5061202;28;20064;-74
2022/12/15 00:47:42;;;;;;;46.72;18.63;;;-4.30;99.90;;;;;;5061138;28;20049;-73
2022/12/15 01:20:19;;;;;;;45.67;18.90;;;-4.20;99.90;;;;;;5062894;28;19970;-73
2022/12/15 01:22:51;;;;;;;45.20;17.13;;;-4.10;99.90;;;;;;5061709;28;20156;-75
2022/12/15 01:25:19;;;;;;;43.47;16.75;;;-4.10;99.90;;;;;;5061812;28;20020;-73
2022/12/15 01:27:45;;;;;;;40.30;17.77;;;-4.10;99.90;;;;;;5061529;28;20017;-74
2022/12/15 01:30:15;;;;;;;38.78;16.70;;;-4.20;99.90;;;;;;5062355;28;20029;-74
2022/12/15 01:32:41;;;;;;;47.22;16.15;;;-4.20;99.90;;;;;;5061792;28;20021;-74
2022/12/15 01:35:07;;;;;;;40.58;16.23;;;-4.20;99.90;;;;;;5061382;28;20017;-75
2022/12/15 01:37:35;;;;;;;58.10;19.17;;;-4.20;99.90;;;;;;5059957;28;20021;-75
2022/12/15 01:42:45;;;;;;;41.60;17.35;;;-4.30;99.90;;;;;;5060927;28;20089;-74
2022/12/15 01:45:43;;;;;;;45.05;19.17;;;-4.30;99.90;;;;;;5060561;28;20135;-73
2022/12/15 01:48:13;;;;;;;50.85;18.90;;;-4.30;99.90;;;;;;5060126;28;20044;-74
2022/12/15 01:50:46;;;;;;;46.60;17.77;;;-4.30;99.90;;;;;;5061264;28;20021;-73
2022/12/15 01:53:14;;;;;;;41.65;17.27;;;-4.20;99.90;;;;;;5061506;28;20025;-74
2022/12/15 01:55:42;;;;;;;43.05;17.80;;;-4.20;99.90;;;;;;5061174;28;20013;-75
2022/12/15 01:58:11;;;;;;;43.33;18.17;;;-4.20;99.90;;;;;;5041737;28;20037;-74
2022/12/15 02:00:37;;;;;;;39.92;16.85;;;-4.20;99.90;;;;;;5041604;28;20025;-75
2022/12/15 02:03:04;;;;;;;43.40;17.33;;;-4.20;99.90;;;;;;5061334;28;20033;-74
2022/12/15 02:05:31;;;;;;;50.60;19.95;;;-4.10;99.90;;;;;;5042014;28;20056;-74
2022/12/15 02:07:59;;;;;;;35.80;17.20;;;-4.10;99.90;;;;;;5062343;28;20043;-75
2022/12/15 02:10:30;;;;;;;43.70;18.27;;;-4.10;99.90;;;;;;5061192;28;20024;-73
2022/12/15 02:13:14;;;;;;;46.65;18.02;;;-4.10;99.90;;;;;;5061119;28;20032;-74
2022/12/15 02:15:53;;;;;;;40.95;18.17;;;-4.10;99.90;;;;;;5042458;28;20036;-74
2022/12/15 02:18:31;;;;;;;44.05;17.52;;;-4.10;99.90;;;;;;5060924;28;21236;-75
2022/12/15 02:20:59;;;;;;;46.25;18.33;;;-4.10;99.90;;;;;;5042066;28;20035;-73
2022/12/15 02:23:28;;;;;;;47.15;19.55;;;-4.10;99.90;;;;;;5061749;28;20510;-74
2022/12/15 02:26:22;;;;;;;49.63;17.75;;;-4.10;99.90;;;;;;5061343;28;20063;-75
2022/12/15 02:29:12;;;;;;;49.85;19.27;;;-4.10;99.90;;;;;;5061738;28;20099;-75
2022/12/15 02:31:54;;;;;;;49.05;18.95;;;-4.10;99.90;;;;;;5042312;28;20057;-74
2022/12/15 02:34:52;;;;;;;42.65;17.55;;;-4.10;99.90;;;;;;5042067;28;20033;-75
2022/12/15 02:37:38;;;;;;;44.70;17.60;;;-4.10;99.90;;;;;;5005939;28;20044;-74
2022/12/15 02:40:07;;;;;;;47.45;18.15;;;-4.10;99.90;;;;;;5060991;28;20033;-75
2022/12/15 02:42:37;;;;;;;43.20;18.13;;;-4.10;99.90;;;;;;5041689;28;20032;-74
2022/12/15 02:45:10;;;;;;;46.90;19.25;;;-4.10;99.90;;;;;;5061128;28;20040;-76
2022/12/15 02:47:47;;;;;;;50.85;18.92;;;-4.10;99.90;;;;;;5061063;28;20048;-77
2022/12/15 02:50:34;;;;;;;38.85;17.98;;;-4.10;99.90;;;;;;5042507;28;20479;-75
2022/12/15 02:53:38;;;;;;;44.72;18.33;;;-4.10;99.90;;;;;;5061137;28;20441;-75
2022/12/15 02:56:07;;;;;;;42.80;17.35;;;-4.10;99.90;;;;;;5060429;28;20021;-75
2022/12/15 02:59:03;;;;;;;46.95;17.48;;;-4.10;99.90;;;;;;5041509;28;20040;-75
2022/12/15 03:01:35;;;;;;;45.80;18.60;;;-4.20;99.90;;;;;;5043350;28;20071;-75
2022/12/15 03:04:04;;;;;;;49.17;18.33;;;-4.20;99.90;;;;;;5064814;28;20017;-76
2022/12/15 03:06:29;;;;;;;47.95;19.65;;;-4.20;99.90;;;;;;5044971;28;20024;-75
2022/12/15 03:08:55;;;;;;;41.47;17.55;;;-4.20;99.90;;;;;;5045446;28;20115;-76
2022/12/15 03:11:21;;;;;;;51.72;18.60;;;-4.20;99.90;;;;;;5064771;28;20099;-76
2022/12/15 03:13:46;;;;;;;44.45;18.55;;;-4.20;99.90;;;;;;5064062;28;20024;-75
2022/12/15 03:16:12;;;;;;;43.17;18.35;;;-4.20;99.90;;;;;;5045117;28;20443;-77
2022/12/15 03:18:37;;;;;;;48.42;19.05;;;-4.10;99.90;;;;;;5064773;28;20029;-75
2022/12/15 03:21:03;;;;;;;50.75;19.60;;;-4.20;99.90;;;;;;5045199;28;20485;-77
2022/12/15 03:23:29;;;;;;;49.13;18.77;;;-4.20;99.90;;;;;;5044852;28;20084;-74
2022/12/15 03:25:54;;;;;;;45.75;17.92;;;-4.10;99.90;;;;;;5064456;28;20033;-75
2022/12/15 03:28:20;;;;;;;44.58;17.73;;;-4.10;99.90;;;;;;5044818;28;20026;-75
2022/12/15 03:30:48;;;;;;;48.22;18.77;;;-4.10;99.90;;;;;;5064321;28;20032;-75
2022/12/15 03:33:14;;;;;;;39.75;16.45;;;-4.10;99.90;;;;;;5063964;28;20013;-74
2022/12/15 03:35:40;;;;;;;39.15;17.30;;;-4.10;99.90;;;;;;5064385;28;20094;-76
2022/12/15 03:38:06;;;;;;;43.72;18.65;;;-4.10;99.90;;;;;;5064689;28;20045;-76
2022/12/15 03:40:31;;;;;;;44.75;18.50;;;-4.10;99.90;;;;;;5044392;28;20021;-76
2022/12/15 03:42:57;;;;;;;43.28;18.17;;;-4.10;99.90;;;;;;5064238;28;20116;-75
2022/12/15 03:45:25;;;;;;;42.13;17.85;;;-4.00;99.90;;;;;;5064014;28;20021;-76
2022/12/15 03:47:52;;;;;;;46.70;18.45;;;-4.00;99.90;;;;;;5038873;28;20044;-75
2022/12/15 03:50:21;;;;;;;42.80;17.55;;;-4.00;99.90;;;;;;5036309;28;20022;-76
2022/12/15 03:53:00;;;;;;;46.65;19.30;;;-3.90;99.90;;;;;;5034994;28;20080;-77
2022/12/15 03:55:27;;;;;;;47.92;17.92;;;-3.90;99.90;;;;;;5052295;28;20089;-76
2022/12/15 03:57:54;;;;;;;47.88;19.23;;;-3.90;99.90;;;;;;5052919;28;20041;-75
2022/12/15 04:00:21;;;;;;;52.53;19.05;;;-3.90;99.90;;;;;;5033817;28;20021;-74
2022/12/15 04:02:47;;;;;;;50.10;20.67;;;-3.80;99.90;;;;;;5052600;28;20025;-75
2022/12/15 04:05:24;;;;;;;47.83;19.30;;;-3.80;99.90;;;;;;5052929;28;20026;-75
2022/12/15 04:07:51;;;;;;;44.08;18.10;;;-3.80;99.90;;;;;;5034778;28;20047;-75
2022/12/15 04:10:16;;;;;;;43.80;18.38;;;-3.60;99.90;;;;;;5052973;28;20496;-75
2022/12/15 04:12:42;;;;;;;46.70;18.98;;;-3.80;99.90;;;;;;5053191;28;20022;-74
2022/12/15 04:15:10;;;;;;;52.92;19.90;;;-3.80;99.90;;;;;;5052390;28;20489;-77
2022/12/15 04:17:35;;;;;;;51.92;19.73;;;-3.80;99.90;;;;;;5035898;28;20028;-76
2022/12/15 04:20:08;;;;;;;47.63;20.13;;;-3.80;99.90;;;;;;5052022;28;20180;-75
2022/12/15 04:22:42;;;;;;;42.15;18.15;;;-3.80;99.90;;;;;;5052212;28;20026;-76
2022/12/15 05:33:58;;;;;;;51.05;20.90;;;-4.00;99.90;;;;;;5072367;28;20102;-75
2022/12/15 05:36:23;;;;;;;60.80;22.48;;;-3.90;99.90;;;;;;5069740;28;20025;-73
2022/12/15 05:38:50;;;;;;;40.83;19.45;;;-4.00;99.90;;;;;;5071995;28;20102;-75
2022/12/15 05:41:20;;;;;;;46.67;19.50;;;-4.00;99.90;;;;;;5052089;28;20024;-75
2022/12/15 05:43:46;;;;;;;46.60;19.08;;;-3.90;99.90;;;;;;5070621;28;20021;-75
2022/12/15 05:46:13;;;;;;;43.13;17.25;;;-3.90;99.90;;;;;;5072189;28;20101;-74
2022/12/15 05:48:40;;;;;;;44.88;17.17;;;-3.90;99.90;;;;;;5071053;28;20040;-75
2022/12/15 05:51:07;;;;;;;51.35;18.35;;;-3.90;99.90;;;;;;5053580;28;20028;-75
2022/12/15 05:53:37;;;;;;;50.25;18.42;;;-3.90;99.90;;;;;;5052920;28;20781;-74
2022/12/15 05:56:11;;;;;;;37.80;17.48;;;-4.00;99.90;;;;;;5071400;28;20028;-75
2022/12/15 05:58:38;;;;;;;38.83;17.67;;;-4.00;99.90;;;;;;5071232;28;20033;-76
2022/12/15 06:01:10;;;;;;;46.38;18.45;;;-4.00;99.90;;;;;;5071515;28;20017;-74
2022/12/15 06:03:37;;;;;;;46.80;19.50;;;-4.10;99.90;;;;;;5071462;28;20024;-74
2022/12/15 06:06:04;;;;;;;43.75;18.58;;;-4.10;99.90;;;;;;5072079;28;20020;-76
2022/12/15 06:08:32;;;;;;;45.25;18.67;;;-4.10;99.90;;;;;;5070804;28;20036;-77
2022/12/15 06:10:58;;;;;;;46.85;19.27;;;-4.00;99.90;;;;;;5052781;28;20036;-76
2022/12/15 06:13:25;;;;;;;37.72;17.75;;;-4.00;99.90;;;;;;5071466;28;20025;-76
2022/12/15 06:15:58;;;;;;;37.85;17.17;;;-4.00;99.90;;;;;;5050511;28;20048;-76
2022/12/15 06:18:26;;;;;;;;;;;-4.00;99.90;;;;;;5063536;28;20040;-75
2022/12/15 06:21:05;;;;;;;42.78;17.35;;;-4.00;99.90;;;;;;5051244;28;19982;-76
2022/12/15 06:23:36;;;;;;;42.97;18.13;;;-4.00;99.90;;;;;;5049813;28;20505;-76
2022/12/15 06:26:24;;;;;;;47.95;18.05;;;-4.00;99.90;;;;;;5045180;28;20817;-74
2022/12/15 06:28:50;;;;;;;48.45;17.73;;;-4.00;99.90;;;;;;5066307;28;20020;-74
2022/12/15 06:31:18;;;;;;;44.88;18.20;;;-4.00;99.90;;;;;;5048187;28;20093;-74
2022/12/15 06:33:44;;;;;;;45.75;18.83;;;-4.00;99.90;;;;;;5061558;28;20021;-74
2022/12/15 06:36:13;;;;;;;47.35;17.20;;;-4.00;99.90;;;;;;5046890;28;20465;-74
2022/12/15 06:38:42;;;;;;;42.22;18.10;;;-4.00;99.90;;;;;;5061400;28;20076;-75
2022/12/15 06:41:14;;;;;;;104.20;36.33;;;-3.90;99.90;;;;;;5060337;28;20032;-76
2022/12/15 06:43:40;;;;;;;83.95;30.90;;;-3.90;99.90;;;;;;5067417;28;20017;-75
2022/12/15 06:46:17;;;;;;;53.85;21.70;;;-4.00;99.90;;;;;;5075477;28;20032;-77
2022/12/15 06:48:44;;;;;;;57.13;20.73;;;-3.90;99.90;;;;;;5076024;28;20053;-75
2022/12/15 06:51:12;;;;;;;44.03;19.58;;;-3.90;99.90;;;;;;5074105;28;20082;-74
2022/12/15 06:53:39;;;;;;;42.95;18.92;;;-3.90;99.90;;;;;;5075238;28;20052;-75
2022/12/15 06:56:11;;;;;;;45.78;19.00;;;-3.90;99.90;;;;;;5076175;28;20021;-75
2022/12/15 06:58:36;;;;;;;46.17;18.77;;;-3.90;99.90;;;;;;5074708;28;20124;-73
2022/12/15 07:01:06;;;;;;;48.53;19.67;;;-3.90;99.90;;;;;;5075363;28;20509;-72
2022/12/15 07:03:33;;;;;;;42.13;19.00;;;-3.90;99.90;;;;;;5075327;28;20036;-73
2022/12/15 07:06:05;;;;;;;49.47;20.17;;;-4.00;99.90;;;;;;5074861;28;20119;-74
2022/12/15 07:08:31;;;;;;;49.80;20.40;;;-4.00;99.90;;;;;;5074339;28;20020;-74
2022/12/15 07:10:57;;;;;;;42.65;18.67;;;-4.00;99.90;;;;;;5073343;28;20029;-74
2022/12/15 07:13:22;;;;;;;44.30;19.35;;;-4.00;99.90;;;;;;5075970;28;20025;-73
2022/12/15 07:15:48;;;;;;;45.58;20.13;;;-3.90;99.90;;;;;;5050462;28;20082;-73
2022/12/15 07:18:15;;;;;;;49.88;20.77;;;-4.00;99.90;;;;;;5056942;28;20045;-73
2022/12/15 07:20:45;;;;;;;47.65;18.52;;;-4.00;99.90;;;;;;5072461;28;20032;-75
2022/12/15 07:23:11;;;;;;;41.25;18.27;;;-4.00;99.90;;;;;;5073361;28;20024;-75
2022/12/15 07:25:38;;;;;;;40.35;17.25;;;-4.00;99.90;;;;;;5073964;28;20050;-73
2022/12/15 07:28:05;;;;;;;45.83;17.95;;;-4.00;99.90;;;;;;5070671;28;20043;-74
2022/12/15 07:30:32;;;;;;;53.28;19.45;;;-4.10;99.90;;;;;;5073681;28;20033;-74
2022/12/15 07:32:58;;;;;;;39.97;17.88;;;-4.10;99.90;;;;;;5070982;28;20037;-73
2022/12/15 07:35:24;;;;;;;42.50;19.52;;;-4.10;99.90;;;;;;5074108;28;20698;-74
2022/12/15 07:37:49;;;;;;;43.50;17.92;;;-4.10;99.90;;;;;;5073814;28;20043;-74
2022/12/15 07:40:16;;;;;;;42.05;18.20;;;-4.10;99.90;;;;;;5073287;28;20062;-75
2022/12/15 07:42:42;;;;;;;42.28;17.10;;;-4.10;99.90;;;;;;5071120;28;20043;-74
2022/12/15 07:45:09;;;;;;;52.65;18.45;;;-4.00;99.90;;;;;;5073170;28;20112;-74
2022/12/15 07:47:35;;;;;;;46.53;18.45;;;-4.10;99.90;;;;;;5072258;28;20099;-74
2022/12/15 07:50:01;;;;;;;44.58;19.05;;;-4.00;99.90;;;;;;5074481;28;20468;-74
2022/12/15 07:52:27;;;;;;;80.10;29.52;;;-4.00;99.90;;;;;;5051187;28;20021;-74
2022/12/15 07:54:52;;;;;;;117.85;39.88;;;-3.90;99.90;;;;;;5073707;28;20033;-74
2022/12/15 07:57:18;;;;;;;106.95;42.05;;;-3.90;99.90;;;;;;5072770;28;20476;-74
2022/12/15 07:59:45;;;;;;;55.50;25.35;;;-3.80;99.90;;;;;;5074052;28;20092;-74
2022/12/15 08:02:12;;;;;;;97.60;38.38;;;-3.80;99.90;;;;;;5054049;28;20038;-74
2022/12/15 08:04:38;;;;;;;56.40;21.85;;;-3.70;99.90;;;;;;5072594;28;20079;-74
2022/12/15 08:07:04;;;;;;;55.17;19.52;;;-3.50;99.90;;;;;;5053587;28;20037;-73
2022/12/15 08:09:32;;;;;;;50.20;20.67;;;-3.40;99.90;;;;;;5050266;28;20036;-74
2022/12/15 08:11:58;;;;;;;52.88;21.80;;;-3.20;99.90;;;;;;5048523;28;20143;-74
2022/12/15 08:14:23;;;;;;;51.25;20.65;;;-2.90;99.90;;;;;;5053995;28;20048;-75
2022/12/15 08:16:49;;;;;;;52.28;23.13;;;-2.60;99.90;;;;;;5071415;28;20075;-74
2022/12/15 08:19:16;;;;;;;44.97;17.98;;;-2.20;99.90;;;;;;5073481;28;20105;-74
2022/12/15 08:21:47;;;;;;;44.63;17.50;;;-1.90;99.90;;;;;;5071463;28;20029;-75
2022/12/15 08:24:13;;;;;;;41.22;17.58;;;-1.50;99.90;;;;;;5072366;28;20100;-74
2022/12/15 08:26:40;;;;;;;35.00;16.45;;;-1.30;99.90;;;;;;5073678;28;20024;-74
2022/12/15 08:29:10;;;;;;;41.35;17.45;;;-1.10;99.90;;;;;;5072195;28;20088;-73
2022/12/15 08:31:35;;;;;;;43.28;16.27;;;-1.00;99.90;;;;;;5043265;28;20056;-75
2022/12/15 08:34:03;;;;;;;43.33;16.98;;;-1.10;99.90;;;;;;5072493;28;20025;-73
2022/12/15 08:36:28;;;;;;;43.78;17.95;;;-1.20;99.90;;;;;;5071818;28;20063;-74
2022/12/15 08:39:00;;;;;;;40.13;16.35;;;-1.40;99.90;;;;;;5072555;28;20037;-72
2022/12/15 08:41:29;;;;;;;41.67;14.80;;;-1.60;99.90;;;;;;5074164;28;20123;-71
2022/12/15 08:43:56;;;;;;;41.25;17.52;;;-1.70;99.90;;;;;;5070173;28;20087;-73
2022/12/15 08:46:28;;;;;;;38.70;16.20;;;-1.80;99.90;;;;;;5071913;28;20085;-75
2022/12/15 08:48:54;;;;;;;46.13;16.95;;;-1.90;99.90;;;;;;5050635;28;20105;-71
2022/12/15 08:51:20;;;;;;;32.63;14.50;;;-1.90;99.90;;;;;;5072821;28;20036;-71
2022/12/15 08:53:47;;;;;;;36.95;16.05;;;-2.00;99.90;;;;;;5051539;28;20055;-73
2022/12/15 08:56:16;;;;;;;35.92;16.17;;;-2.10;99.90;;;;;;5070750;28;20048;-73
2022/12/15 08:58:43;;;;;;;38.95;16.17;;;-2.10;99.90;;;;;;5069153;28;20507;-72
2022/12/15 09:01:17;;;;;;;41.30;16.13;;;-2.10;99.90;;;;;;5071535;28;20031;-73
2022/12/15 09:03:46;;;;;;;41.88;15.75;;;-2.10;99.90;;;;;;5071506;28;20052;-73
2022/12/15 09:06:14;;;;;;;47.00;16.27;;;-2.10;99.90;;;;;;5071642;28;20021;-73
2022/12/15 09:08:40;;;;;;;38.13;17.13;;;-2.10;99.90;;;;;;5071466;28;20079;-74
2022/12/15 09:11:06;;;;;;;38.50;15.65;;;-2.10;99.90;;;;;;5071970;28;20031;-72
2022/12/15 09:13:32;;;;;;;38.08;17.10;;;-2.10;99.90;;;;;;5054142;28;20087;-72
2022/12/15 09:16:06;;;;;;;42.08;17.42;;;-2.00;99.90;;;;;;5074446;28;20024;-72
2022/12/15 09:18:33;;;;;;;44.08;17.75;;;-2.00;99.90;;;;;;5070902;28;20039;-73
2022/12/15 09:21:02;;;;;;;42.42;16.45;;;-1.90;99.90;;;;;;5069571;28;20124;-71
2022/12/15 09:23:29;;;;;;;39.38;17.38;;;-1.90;99.90;;;;;;5071879;28;20140;-71
2022/12/15 09:26:17;;;;;;;35.65;17.17;;;-1.80;99.90;;;;;;5069772;28;20045;-73
2022/12/15 09:28:43;;;;;;;43.60;17.85;;;-1.80;99.90;;;;;;5058411;28;20055;-72
2022/12/15 09:31:14;;;;;;;37.58;17.50;;;-1.70;99.90;;;;;;5059689;28;20021;-72
2022/12/15 09:33:41;;;;;;;48.70;17.60;;;-1.60;99.90;;;;;;5058278;28;20050;-75
2022/12/15 09:36:08;;;;;;;43.28;16.60;;;-1.50;99.90;;;;;;5036605;28;20381;-73
2022/12/15 09:38:37;;;;;;;37.35;17.73;;;-1.50;99.90;;;;;;5068282;28;20040;-74
2022/12/15 09:41:27;;;;;;;46.25;20.50;;;-1.40;99.90;;;;;;5071608;28;20029;-73
2022/12/15 09:43:59;;;;;;;44.97;18.40;;;-1.30;99.90;;;;;;5057545;28;20040;-73
2022/12/15 09:46:25;;;;;;;38.92;16.02;;;-1.20;99.90;;;;;;5068891;28;20029;-73
2022/12/15 09:48:52;;;;;;;35.08;16.65;;;-1.20;99.90;;;;;;5068590;28;20053;-74
2022/12/15 09:51:22;;;;;;;36.63;17.00;;;-1.10;99.90;;;;;;5068824;28;20028;-73
2022/12/15 09:53:48;;;;;;;39.97;17.58;;;-1.00;99.90;;;;;;5068937;28;20070;-72
2022/12/15 09:56:19;;;;;;;41.63;19.77;;;-0.90;99.90;;;;;;5049607;28;20393;-73
2022/12/15 09:59:12;;;;;;;45.80;20.75;;;-0.90;99.90;;;;;;5046969;28;20167;-73
2022/12/15 10:01:48;;;;;;;48.75;18.85;;;-0.80;99.90;;;;;;5071702;28;20032;-73
2022/12/15 10:04:33;;;;;;;39.85;16.58;;;-0.70;99.90;;;;;;5071193;28;20028;-72
2022/12/15 10:07:13;;;;;;;;;;;-0.70;99.90;;;;;;5068135;28;20084;-74
2022/12/15 10:09:42;;;;;;;40.75;19.05;;;-0.60;99.90;;;;;;5045504;28;19991;-75
2022/12/15 10:12:18;;;;;;;46.95;19.10;;;-0.60;99.90;;;;;;5038968;28;20060;-75
2022/12/15 10:15:09;;;;;;;39.58;16.05;;;-0.50;99.90;;;;;;5046472;28;20052;-72
2022/12/15 10:17:50;;;;;;;41.80;15.60;;;-0.40;99.90;;;;;;5071429;28;20036;-72
2022/12/15 10:20:25;;;;;;;30.80;14.38;;;-0.40;99.90;;;;;;5070559;28;20036;-74
2022/12/15 10:22:52;;;;;;;35.50;14.98;;;-0.30;99.90;;;;;;5068857;28;20032;-74
2022/12/15 10:25:20;;;;;;;33.00;15.55;;;-0.20;99.90;;;;;;5068472;28;20048;-73
2022/12/15 10:27:54;;;;;;;40.38;16.33;;;-0.10;99.90;;;;;;5052650;28;20044;-72
2022/12/15 10:30:20;;;;;;;31.90;15.25;;;0.00;99.90;;;;;;5072072;28;20043;-72
2022/12/15 10:33:07;;;;;;;39.35;15.27;;;0.00;99.90;;;;;;5068743;28;20140;-74
2022/12/15 10:35:35;;;;;;;31.55;13.73;;;0.00;99.90;;;;;;5071997;28;20503;-73
2022/12/15 10:38:08;;;;;;;33.08;14.18;;;0.10;99.90;;;;;;5069629;28;20068;-73
2022/12/15 10:40:54;;;;;;;40.13;14.68;;;0.00;99.90;;;;;;5043345;28;20021;-73
2022/12/15 10:43:26;;;;;;;30.70;14.38;;;0.10;99.90;;;;;;5059433;28;20033;-72
2022/12/15 10:46:22;;;;;;;35.70;15.25;;;0.20;99.90;;;;;;5060096;28;20063;-71
2022/12/15 10:48:50;;;;;;;31.00;13.63;;;0.20;99.90;;;;;;5042042;28;20072;-72
2022/12/15 10:51:21;;;;;;;32.08;12.45;;;0.30;99.90;;;;;;5037651;28;20026;-72
2022/12/15 10:53:50;;;;;;;27.80;11.32;;;0.20;99.90;;;;;;5059216;28;20081;-72
2022/12/15 10:56:25;;;;;;;26.92;12.10;;;0.20;99.90;;;;;;5058459;28;20025;-72
2022/12/15 10:58:56;;;;;;;30.70;11.15;;;0.20;99.90;;;;;;5058873;28;20060;-72
2022/12/15 11:01:27;;;;;;;37.40;12.68;;;0.20;99.90;;;;;;5060146;28;20021;-73
2022/12/15 11:03:53;;;;;;;30.52;12.07;;;0.30;99.90;;;;;;5042489;28;20037;-70
2022/12/15 11:06:35;;;;;;;26.00;11.45;;;0.40;99.90;;;;;;5061260;28;20021;-71
2022/12/15 11:09:25;;;;;;;27.50;11.60;;;0.40;99.90;;;;;;5060121;28;20021;-71
2022/12/15 11:14:48;;;;;;;25.88;10.68;;;1.00;99.90;;;;;;5058610;28;20097;-70
2022/12/15 11:17:21;;;;;;;23.48;10.55;;;1.40;99.90;;;;;;5055486;28;20111;-70
2022/12/15 11:19:59;;;;;;;28.55;10.30;;;1.60;99.90;;;;;;5058940;28;20033;-72
2022/12/15 11:22:45;;;;;;;23.52;8.63;;;1.80;99.90;;;;;;5058824;28;20046;-70
2022/12/15 11:25:28;;;;;;;32.03;11.32;;;2.00;99.90;;;;;;5062679;28;20081;-71
2022/12/15 11:27:58;;;;;;;24.52;9.70;;;2.30;99.90;;;;;;5062723;28;20059;-69
2022/12/15 11:30:31;;;;;;;21.60;8.80;;;2.60;99.90;;;;;;5046824;28;20096;-71
2022/12/15 11:33:01;;;;;;;20.63;9.82;;;2.90;99.90;;;;;;5063868;28;20473;-71
2022/12/15 11:36:09;;;;;;;30.52;10.55;;;3.20;99.90;;;;;;5045681;28;20032;-70
2022/12/15 11:39:11;;;;;;;23.55;9.88;;;3.50;99.90;;;;;;5052002;28;20052;-72
2022/12/15 11:42:09;;;;;;;24.50;10.05;;;3.80;99.90;;;;;;5050663;28;20052;-71
2022/12/15 11:44:48;;;;;;;24.42;9.68;;;4.20;99.90;;;;;;5020593;28;20042;-69
2022/12/15 11:47:28;;;;;;;20.45;9.43;;;4.50;99.90;;;;;;5063445;28;20735;-69
2022/12/15 11:50:24;;;;;;;27.00;10.88;;;4.70;99.90;;;;;;5062341;28;20037;-69
2022/12/15 11:53:18;;;;;;;33.67;10.10;;;4.80;99.90;;;;;;5062692;28;20059;-71
2022/12/15 11:55:54;;;;;;;19.23;9.15;;;4.80;99.90;;;;;;5061628;28;20048;-70
2022/12/15 11:58:41;;;;;;;26.77;11.70;;;4.90;99.90;;;;;;5042179;28;20142;-71
2022/12/15 12:01:35;;;;;;;34.90;11.63;;;5.20;99.90;;;;;;5051538;28;20047;-69
2022/12/15 12:04:13;;;;;;;24.00;10.02;;;5.50;99.90;;;;;;5053808;28;20032;-71
2022/12/15 12:06:46;;;;;;;24.08;11.85;;;5.80;99.90;;;;;;5054641;28;20029;-71
2022/12/15 12:09:28;;;;;;;17.63;8.15;;;5.90;99.90;;;;;;5063781;28;20049;-70
2022/12/15 12:12:07;;;;;;;21.75;8.15;;;6.10;99.90;;;;;;5062693;28;20032;-71
2022/12/15 12:14:44;;;;;;;18.58;7.82;;;6.30;99.90;;;;;;5064156;28;20112;-70
2022/12/15 12:17:21;;;;;;;21.13;8.35;;;6.40;99.90;;;;;;5064046;28;20032;-71
2022/12/15 12:19:52;;;;;;;25.05;9.02;;;6.50;99.90;;;;;;5063299;28;20092;-70
2022/12/15 12:22:32;;;;;;;27.58;10.52;;;6.50;99.90;;;;;;5063196;28;20107;-70
2022/12/15 12:25:13;;;;;;;24.13;10.35;;;6.30;99.90;;;;;;5062788;28;20048;-69
2022/12/15 12:27:43;;;;;;;24.83;10.77;;;6.40;99.90;;;;;;5061448;28;20044;-70
2022/12/15 12:30:14;;;;;;;16.45;8.88;;;6.60;99.90;;;;;;5064379;28;20028;-70
2022/12/15 12:32:49;;;;;;;21.58;9.07;;;6.70;99.90;;;;;;5044431;28;20032;-71
2022/12/15 12:35:37;;;;;;;19.15;8.32;;;6.70;99.90;;;;;;5064052;28;20029;-70
2022/12/15 12:38:05;;;;;;;19.80;8.07;;;6.50;99.90;;;;;;5062681;28;20047;-70
2022/12/15 12:40:39;;;;;;;15.98;7.90;;;6.20;99.90;;;;;;5063118;28;20056;-70
2022/12/15 12:43:06;;;;;;;28.20;7.65;;;6.00;99.90;;;;;;5063462;28;20056;-69
2022/12/15 12:45:47;;;;;;;21.25;8.60;;;5.80;99.90;;;;;;5062474;28;20380;-67
2022/12/15 12:48:41;;;;;;;18.50;8.63;;;5.40;99.90;;;;;;5062373;28;20040;-72
2022/12/15 12:51:21;;;;;;;23.70;8.10;;;5.20;99.90;;;;;;5026574;28;20032;-71
2022/12/15 12:53:48;;;;;;;19.70;8.68;;;4.80;99.90;;;;;;5059911;28;20028;-72
2022/12/15 12:56:41;;;;;;;23.98;8.70;;;4.60;99.90;;;;;;5062994;28;20021;-71
2022/12/15 12:59:25;;;;;;;14.27;7.03;;;4.40;99.90;;;;;;5061896;28;20041;-71
2022/12/15 13:01:53;;;;;;;22.00;8.57;;;4.10;99.90;;;;;;5062119;28;20131;-70
2022/12/15 13:04:27;;;;;;;19.58;8.55;;;4.00;99.90;;;;;;5061957;28;20084;-69
2022/12/15 13:06:58;;;;;;;20.95;8.15;;;3.80;99.90;;;;;;5064152;28;20033;-72
2022/12/15 13:09:37;;;;;;;19.92;7.55;;;3.80;99.90;;;;;;5062611;28;20024;-70
2022/12/15 13:12:04;;;;;;;19.75;7.90;;;3.60;99.90;;;;;;5055413;28;20031;-69
2022/12/15 13:14:40;;;;;;;32.22;10.90;;;3.50;99.90;;;;;;5060998;28;20013;-72
2022/12/15 13:17:16;;;;;;;25.33;11.13;;;3.50;99.90;;;;;;5061065;28;20033;-69
2022/12/15 13:19:57;;;;;;;41.53;16.13;;;3.40;99.90;;;;;;5042318;28;20037;-69
2022/12/15 13:22:34;;;;;;;36.25;11.60;;;3.30;99.90;;;;;;5059511;28;20036;-69
2022/12/15 13:25:01;;;;;;;42.08;16.65;;;3.30;99.90;;;;;;5059750;28;20036;-71
2022/12/15 13:27:37;;;;;;;59.95;20.00;;;3.30;99.90;;;;;;5040732;28;20028;-69
2022/12/15 13:30:08;;;;;;;23.05;9.90;;;3.20;99.90;;;;;;5058903;28;20048;-70
2022/12/15 13:32:50;;;;;;;26.58;9.50;;;3.20;99.90;;;;;;5060721;28;20071;-71
2022/12/15 13:35:28;;;;;;;23.58;9.27;;;3.10;99.90;;;;;;5061228;28;20433;-71
2022/12/15 13:37:58;;;;;;;22.10;9.38;;;3.10;99.90;;;;;;5060915;28;20037;-70
2022/12/15 13:40:36;;;;;;;28.90;10.90;;;3.10;99.90;;;;;;5069028;28;20029;-67
2022/12/15 13:43:02;;;;;;;22.30;10.20;;;3.00;99.90;;;;;;5065734;28;20029;-69
2022/12/15 13:45:49;;;;;;;24.35;10.00;;;3.00;99.90;;;;;;5064927;28;20096;-70
2022/12/15 13:48:35;;;;;;;29.65;10.35;;;3.00;99.90;;;;;;5059496;28;20041;-69
2022/12/15 13:51:29;;;;;;;22.52;10.30;;;2.90;99.90;;;;;;5041930;28;20096;-71
2022/12/15 13:54:15;;;;;;;21.02;8.48;;;2.90;99.90;;;;;;5057132;28;20029;-66
2022/12/15 13:56:45;;;;;;;20.85;8.77;;;2.90;99.90;;;;;;5059690;28;20132;-71
2022/12/15 13:59:22;;;;;;;23.98;10.90;;;2.80;99.90;;;;;;5060772;28;20127;-72
2022/12/15 14:01:50;;;;;;;20.92;9.88;;;2.70;99.90;;;;;;5057853;28;20029;-71
2022/12/15 14:04:16;;;;;;;21.15;10.90;;;2.70;99.90;;;;;;5060375;28;20025;-71
2022/12/15 14:07:01;;;;;;;20.77;9.40;;;2.70;99.90;;;;;;5060192;28;20028;-69
2022/12/15 14:09:35;;;;;;;28.40;11.40;;;2.60;99.90;;;;;;5060098;28;20033;-70
2022/12/15 14:12:06;;;;;;;22.17;10.13;;;2.50;99.90;;;;;;5060737;28;20033;-70
2022/12/15 14:14:41;;;;;;;26.77;10.23;;;2.50;99.90;;;;;;5041114;28;20048;-69
2022/12/15 14:17:12;;;;;;;27.02;10.43;;;2.50;99.90;;;;;;5060911;28;20033;-70
2022/12/15 14:19:48;;;;;;;32.45;10.55;;;2.50;99.90;;;;;;5061136;28;20035;-71
2022/12/15 14:22:32;;;;;;;20.60;10.40;;;2.40;99.90;;;;;;5060848;28;20102;-69
2022/12/15 14:25:17;;;;;;;19.08;9.02;;;2.40;99.90;;;;;;5060028;28;20424;-69
2022/12/15 14:27:43;;;;;;;26.08;10.27;;;2.40;99.90;;;;;;5060845;28;20033;-69
2022/12/15 14:30:21;;;;;;;24.02;10.70;;;2.30;99.90;;;;;;5060819;28;20047;-72
2022/12/15 14:32:51;;;;;;;24.42;11.55;;;2.30;99.90;;;;;;5057990;28;20025;-70
2022/12/15 14:35:48;;;;;;;22.52;10.60;;;2.30;99.90;;;;;;5058980;28;20039;-71
2022/12/15 14:38:35;;;;;;;25.08;10.90;;;2.20;99.90;;;;;;5049459;28;20053;-69
2022/12/15 14:41:03;;;;;;;25.30;10.90;;;2.20;99.90;;;;;;5060145;28;20125;-68
2022/12/15 14:43:33;;;;;;;33.00;11.27;;;2.20;99.90;;;;;;5061046;28;20085;-71
2022/12/15 14:46:14;;;;;;;28.77;10.23;;;2.10;99.90;;;;;;5060602;28;20033;-69
2022/12/15 14:48:48;;;;;;;25.23;9.98;;;2.10;99.90;;;;;;5060692;28;20053;-69
2022/12/15 14:51:14;;;;;;;34.40;12.00;;;2.00;99.90;;;;;;5060280;28;20021;-69
2022/12/15 14:53:41;;;;;;;21.50;11.30;;;2.00;99.90;;;;;;5059995;28;20094;-71
2022/12/15 14:56:19;;;;;;;22.00;10.95;;;2.00;99.90;;;;;;5061434;28;20032;-70
2022/12/15 14:59:06;;;;;;;28.38;11.73;;;2.00;99.90;;;;;;5064419;28;20055;-71
2022/12/15 15:01:33;;;;;;;26.98;11.52;;;2.00;99.90;;;;;;5034766;28;20056;-69
2022/12/15 15:04:01;;;;;;;25.48;11.80;;;1.90;99.90;;;;;;5063634;28;20021;-71
2022/12/15 15:06:39;;;;;;;25.70;12.07;;;1.90;99.90;;;;;;5065349;28;20472;-68
2022/12/15 15:09:38;;;;;;;28.73;13.60;;;1.80;99.90;;;;;;5064867;28;20447;-71
2022/12/15 15:12:06;;;;;;;27.05;11.82;;;1.80;99.90;;;;;;5063409;28;20071;-68
2022/12/15 15:14:46;;;;;;;31.60;13.40;;;1.80;99.90;;;;;;5064371;28;20061;-70
2022/12/15 15:17:12;;;;;;;35.15;16.42;;;1.70;99.90;;;;;;5063292;28;20049;-72
2022/12/15 15:19:49;;;;;;;38.80;15.25;;;1.70;99.90;;;;;;5065109;28;20041;-70
2022/12/15 15:22:27;;;;;;;37.38;15.30;;;1.60;99.90;;;;;;5064250;28;20053;-70
2022/12/15 15:24:52;;;;;;;39.65;16.27;;;1.60;99.90;;;;;;5064630;28;20044;-69